sensor_id;sensor_type;location;lat;lon;timestamp;P1;durP1;ratioP1;P2;durP2;ratioP2
46835;SDS011;32573;51.290;6.926;2023-04-19T00:00:32;12.27;;;7.75;;
46835;SDS011;32573;51.290;6.926;2023-04-19T00:03:01;13.95;;;7.93;;
46835;SDS011;32573;51.290;6.926;2023-04-19T00:05:30;11.50;;;7.53;;
46835;SDS011;32573;51.290;6.926;2023-04-19T00:07:58;11.02;;;6.97;;
46835;SDS011;32573;51.290;6.926;2023-04-19T00:10:27;14.55;;;7.93;;
46835;SDS011;32573;51.290;6.926;2023-04-19T00:12:56;12.02;;;7.15;;
46835;SDS011;32573;51.290;6.926;2023-04-19T00:15:24;12.07;;;7.97;;
46835;SDS011;32573;51.290;6.926;2023-04-19T00:17:54;10.02;;;6.88;;
46835;SDS011;32573;51.290;6.926;2023-04-19T00:20:23;11.63;;;6.93;;
46835;SDS011;32573;51.290;6.926;2023-04-19T00:22:52;11.63;;;7.40;;
46835;SDS011;32573;51.290;6.926;2023-04-19T00:25:20;10.43;;;7.10;;
46835;SDS011;32573;51.290;6.926;2023-04-19T00:27:49;11.43;;;7.03;;
46835;SDS011;32573;51.290;6.926;2023-04-19T00:30:17;11.95;;;6.95;;
46835;SDS011;32573;51.290;6.926;2023-04-19T00:32:47;10.63;;;6.85;;
46835;SDS011;32573;51.290;6.926;2023-04-19T00:35:17;9.88;;;6.75;;
46835;SDS011;32573;51.290;6.926;2023-04-19T00:37:46;11.50;;;6.38;;
46835;SDS011;32573;51.290;6.926;2023-04-19T00:40:15;9.98;;;6.45;;
46835;SDS011;32573;51.290;6.926;2023-04-19T00:42:43;10.38;;;6.43;;
46835;SDS011;32573;51.290;6.926;2023-04-19T00:45:12;11.40;;;7.00;;
46835;SDS011;32573;51.290;6.926;2023-04-19T00:47:41;12.80;;;7.78;;
46835;SDS011;32573;51.290;6.926;2023-04-19T00:50:11;12.02;;;7.25;;
46835;SDS011;32573;51.290;6.926;2023-04-19T00:52:41;12.40;;;7.63;;
46835;SDS011;32573;51.290;6.926;2023-04-19T00:55:10;10.55;;;6.60;;
46835;SDS011;32573;51.290;6.926;2023-04-19T00:57:40;13.07;;;8.00;;
46835;SDS011;32573;51.290;6.926;2023-04-19T01:00:09;13.95;;;8.77;;
46835;SDS011;32573;51.290;6.926;2023-04-19T01:02:38;12.77;;;8.43;;
46835;SDS011;32573;51.290;6.926;2023-04-19T01:05:07;12.65;;;7.60;;
46835;SDS011;32573;51.290;6.926;2023-04-19T01:07:36;13.35;;;8.25;;
46835;SDS011;32573;51.290;6.926;2023-04-19T01:10:06;12.77;;;7.70;;
46835;SDS011;32573;51.290;6.926;2023-04-19T01:12:35;12.63;;;7.78;;
46835;SDS011;32573;51.290;6.926;2023-04-19T01:15:04;14.07;;;8.77;;
46835;SDS011;32573;51.290;6.926;2023-04-19T01:17:34;12.65;;;8.02;;
46835;SDS011;32573;51.290;6.926;2023-04-19T01:20:04;11.85;;;7.50;;
46835;SDS011;32573;51.290;6.926;2023-04-19T01:22:35;10.98;;;7.20;;
46835;SDS011;32573;51.290;6.926;2023-04-19T01:25:05;12.05;;;7.43;;
46835;SDS011;32573;51.290;6.926;2023-04-19T01:27:34;12.55;;;7.65;;
46835;SDS011;32573;51.290;6.926;2023-04-19T01:30:03;13.82;;;7.80;;
46835;SDS011;32573;51.290;6.926;2023-04-19T01:32:33;13.35;;;8.45;;
46835;SDS011;32573;51.290;6.926;2023-04-19T01:35:01;12.25;;;7.78;;
46835;SDS011;32573;51.290;6.926;2023-04-19T01:37:33;11.50;;;7.57;;
46835;SDS011;32573;51.290;6.926;2023-04-19T01:40:04;11.82;;;7.40;;
46835;SDS011;32573;51.290;6.926;2023-04-19T01:42:33;11.68;;;7.55;;
46835;SDS011;32573;51.290;6.926;2023-04-19T01:45:02;12.50;;;7.50;;
46835;SDS011;32573;51.290;6.926;2023-04-19T01:47:31;13.07;;;7.40;;
46835;SDS011;32573;51.290;6.926;2023-04-19T01:50:01;12.13;;;8.07;;
46835;SDS011;32573;51.290;6.926;2023-04-19T01:52:30;14.20;;;7.95;;
46835;SDS011;32573;51.290;6.926;2023-04-19T01:55:00;13.95;;;8.25;;
46835;SDS011;32573;51.290;6.926;2023-04-19T01:57:29;13.20;;;8.13;;
46835;SDS011;32573;51.290;6.926;2023-04-19T01:59:58;11.60;;;8.20;;
46835;SDS011;32573;51.290;6.926;2023-04-19T02:02:27;12.70;;;7.82;;
46835;SDS011;32573;51.290;6.926;2023-04-19T02:04:56;11.13;;;7.22;;
46835;SDS011;32573;51.290;6.926;2023-04-19T02:07:26;12.57;;;7.43;;
46835;SDS011;32573;51.290;6.926;2023-04-19T02:09:57;12.85;;;7.80;;
46835;SDS011;32573;51.290;6.926;2023-04-19T02:12:28;10.90;;;7.13;;
46835;SDS011;32573;51.290;6.926;2023-04-19T02:14:57;15.25;;;9.43;;
46835;SDS011;32573;51.290;6.926;2023-04-19T02:17:30;12.88;;;7.07;;
46835;SDS011;32573;51.290;6.926;2023-04-19T02:19:59;9.98;;;6.65;;
46835;SDS011;32573;51.290;6.926;2023-04-19T02:22:28;9.60;;;6.43;;
46835;SDS011;32573;51.290;6.926;2023-04-19T02:24:57;9.70;;;5.85;;
46835;SDS011;32573;51.290;6.926;2023-04-19T02:27:30;10.32;;;6.60;;
46835;SDS011;32573;51.290;6.926;2023-04-19T02:29:59;10.02;;;6.03;;
46835;SDS011;32573;51.290;6.926;2023-04-19T02:32:29;9.05;;;5.85;;
46835;SDS011;32573;51.290;6.926;2023-04-19T02:34:58;8.45;;;5.55;;
46835;SDS011;32573;51.290;6.926;2023-04-19T02:37:28;8.23;;;5.65;;
46835;SDS011;32573;51.290;6.926;2023-04-19T02:39:57;9.18;;;4.90;;
46835;SDS011;32573;51.290;6.926;2023-04-19T02:42:28;10.60;;;6.45;;
46835;SDS011;32573;51.290;6.926;2023-04-19T02:44:58;8.27;;;5.13;;
46835;SDS011;32573;51.290;6.926;2023-04-19T02:47:26;8.95;;;4.85;;
46835;SDS011;32573;51.290;6.926;2023-04-19T02:49:55;8.20;;;5.15;;
46835;SDS011;32573;51.290;6.926;2023-04-19T02:52:24;8.30;;;4.97;;
46835;SDS011;32573;51.290;6.926;2023-04-19T02:54:53;7.55;;;5.05;;
46835;SDS011;32573;51.290;6.926;2023-04-19T02:57:22;7.95;;;5.30;;
46835;SDS011;32573;51.290;6.926;2023-04-19T02:59:51;7.70;;;5.00;;
46835;SDS011;32573;51.290;6.926;2023-04-19T03:02:21;7.72;;;4.90;;
46835;SDS011;32573;51.290;6.926;2023-04-19T03:04:50;7.90;;;4.75;;
46835;SDS011;32573;51.290;6.926;2023-04-19T03:07:19;8.18;;;5.25;;
46835;SDS011;32573;51.290;6.926;2023-04-19T03:09:48;7.55;;;4.78;;
46835;SDS011;32573;51.290;6.926;2023-04-19T03:12:18;8.43;;;5.25;;
46835;SDS011;32573;51.290;6.926;2023-04-19T03:14:47;11.68;;;5.60;;
46835;SDS011;32573;51.290;6.926;2023-04-19T03:17:16;8.45;;;5.10;;
46835;SDS011;32573;51.290;6.926;2023-04-19T03:19:46;10.20;;;5.85;;
46835;SDS011;32573;51.290;6.926;2023-04-19T03:22:15;9.70;;;5.88;;
46835;SDS011;32573;51.290;6.926;2023-04-19T03:24:44;9.23;;;5.43;;
46835;SDS011;32573;51.290;6.926;2023-04-19T03:27:22;10.80;;;5.85;;
46835;SDS011;32573;51.290;6.926;2023-04-19T03:29:56;10.48;;;6.32;;
46835;SDS011;32573;51.290;6.926;2023-04-19T03:32:26;8.93;;;5.22;;
46835;SDS011;32573;51.290;6.926;2023-04-19T03:34:56;8.68;;;4.80;;
46835;SDS011;32573;51.290;6.926;2023-04-19T03:37:24;8.93;;;5.25;;
46835;SDS011;32573;51.290;6.926;2023-04-19T03:39:53;9.98;;;5.75;;
46835;SDS011;32573;51.290;6.926;2023-04-19T03:45:06;9.05;;;5.50;;
46835;SDS011;32573;51.290;6.926;2023-04-19T03:47:43;8.20;;;4.90;;
46835;SDS011;32573;51.290;6.926;2023-04-19T03:50:13;8.02;;;5.25;;
46835;SDS011;32573;51.290;6.926;2023-04-19T03:52:45;10.25;;;5.30;;
46835;SDS011;32573;51.290;6.926;2023-04-19T03:55:14;8.60;;;4.82;;
46835;SDS011;32573;51.290;6.926;2023-04-19T03:57:43;7.88;;;4.72;;
46835;SDS011;32573;51.290;6.926;2023-04-19T04:00:25;7.88;;;4.95;;
46835;SDS011;32573;51.290;6.926;2023-04-19T04:02:58;8.70;;;5.28;;
46835;SDS011;32573;51.290;6.926;2023-04-19T04:05:29;9.20;;;5.10;;
46835;SDS011;32573;51.290;6.926;2023-04-19T04:07:59;8.18;;;4.53;;
46835;SDS011;32573;51.290;6.926;2023-04-19T04:10:28;8.00;;;4.63;;
46835;SDS011;32573;51.290;6.926;2023-04-19T04:12:56;7.38;;;4.20;;
46835;SDS011;32573;51.290;6.926;2023-04-19T04:15:34;7.63;;;4.65;;
46835;SDS011;32573;51.290;6.926;2023-04-19T04:18:04;7.95;;;4.45;;
46835;SDS011;32573;51.290;6.926;2023-04-19T04:20:36;7.95;;;4.28;;
46835;SDS011;32573;51.290;6.926;2023-04-19T04:23:08;7.50;;;3.83;;
46835;SDS011;32573;51.290;6.926;2023-04-19T04:25:42;8.07;;;4.25;;
46835;SDS011;32573;51.290;6.926;2023-04-19T04:28:12;7.15;;;3.83;;
46835;SDS011;32573;51.290;6.926;2023-04-19T04:30:41;7.25;;;3.78;;
46835;SDS011;32573;51.290;6.926;2023-04-19T04:33:11;7.88;;;4.13;;
46835;SDS011;32573;51.290;6.926;2023-04-19T04:35:45;7.20;;;3.90;;
46835;SDS011;32573;51.290;6.926;2023-04-19T04:38:20;6.45;;;3.83;;
46835;SDS011;32573;51.290;6.926;2023-04-19T04:40:52;6.32;;;3.70;;
46835;SDS011;32573;51.290;6.926;2023-04-19T04:43:22;6.85;;;3.80;;
46835;SDS011;32573;51.290;6.926;2023-04-19T04:45:56;6.80;;;3.83;;
46835;SDS011;32573;51.290;6.926;2023-04-19T04:48:29;6.45;;;3.80;;
46835;SDS011;32573;51.290;6.926;2023-04-19T04:50:59;7.53;;;4.00;;
46835;SDS011;32573;51.290;6.926;2023-04-19T04:53:29;6.68;;;3.58;;
46835;SDS011;32573;51.290;6.926;2023-04-19T04:55:59;5.85;;;3.38;;
46835;SDS011;32573;51.290;6.926;2023-04-19T04:58:30;6.47;;;3.60;;
46835;SDS011;32573;51.290;6.926;2023-04-19T05:01:03;6.68;;;3.45;;
46835;SDS011;32573;51.290;6.926;2023-04-19T05:03:37;7.03;;;3.45;;
46835;SDS011;32573;51.290;6.926;2023-04-19T05:06:14;7.72;;;3.60;;
46835;SDS011;32573;51.290;6.926;2023-04-19T05:08:43;7.30;;;3.47;;
46835;SDS011;32573;51.290;6.926;2023-04-19T05:11:31;6.10;;;3.40;;
46835;SDS011;32573;51.290;6.926;2023-04-19T05:14:01;6.00;;;3.35;;
46835;SDS011;32573;51.290;6.926;2023-04-19T05:16:31;5.78;;;2.95;;
46835;SDS011;32573;51.290;6.926;2023-04-19T05:19:02;5.60;;;3.20;;
46835;SDS011;32573;51.290;6.926;2023-04-19T05:21:39;5.75;;;3.70;;
46835;SDS011;32573;51.290;6.926;2023-04-19T05:24:09;6.07;;;3.30;;
46835;SDS011;32573;51.290;6.926;2023-04-19T05:26:38;5.45;;;3.30;;
46835;SDS011;32573;51.290;6.926;2023-04-19T05:29:10;6.00;;;3.25;;
46835;SDS011;32573;51.290;6.926;2023-04-19T05:31:45;6.55;;;3.50;;
46835;SDS011;32573;51.290;6.926;2023-04-19T05:34:32;6.70;;;3.70;;
46835;SDS011;32573;51.290;6.926;2023-04-19T05:37:03;6.25;;;3.45;;
46835;SDS011;32573;51.290;6.926;2023-04-19T05:39:32;7.43;;;3.60;;
46835;SDS011;32573;51.290;6.926;2023-04-19T05:42:01;5.43;;;3.10;;
46835;SDS011;32573;51.290;6.926;2023-04-19T05:44:30;5.30;;;2.88;;
46835;SDS011;32573;51.290;6.926;2023-04-19T05:46:59;6.18;;;3.53;;
46835;SDS011;32573;51.290;6.926;2023-04-19T05:49:50;4.72;;;2.88;;
46835;SDS011;32573;51.290;6.926;2023-04-19T05:52:28;5.28;;;2.75;;
46835;SDS011;32573;51.290;6.926;2023-04-19T05:54:58;7.13;;;4.05;;
46835;SDS011;32573;51.290;6.926;2023-04-19T05:57:28;6.63;;;3.60;;
46835;SDS011;32573;51.290;6.926;2023-04-19T05:59:58;6.32;;;3.88;;
46835;SDS011;32573;51.290;6.926;2023-04-19T06:02:39;7.55;;;4.05;;
46835;SDS011;32573;51.290;6.926;2023-04-19T06:05:12;7.13;;;4.38;;
46835;SDS011;32573;51.290;6.926;2023-04-19T06:07:43;7.60;;;4.10;;
46835;SDS011;32573;51.290;6.926;2023-04-19T06:10:21;7.43;;;4.18;;
46835;SDS011;32573;51.290;6.926;2023-04-19T06:12:55;6.85;;;3.83;;
46835;SDS011;32573;51.290;6.926;2023-04-19T06:15:24;7.40;;;4.10;;
46835;SDS011;32573;51.290;6.926;2023-04-19T06:17:53;6.95;;;4.22;;
46835;SDS011;32573;51.290;6.926;2023-04-19T06:20:25;8.48;;;4.30;;
46835;SDS011;32573;51.290;6.926;2023-04-19T06:22:55;6.25;;;3.65;;
46835;SDS011;32573;51.290;6.926;2023-04-19T06:25:23;6.10;;;3.67;;
46835;SDS011;32573;51.290;6.926;2023-04-19T06:27:52;6.85;;;3.58;;
46835;SDS011;32573;51.290;6.926;2023-04-19T06:30:21;7.10;;;3.90;;
46835;SDS011;32573;51.290;6.926;2023-04-19T06:32:50;7.90;;;4.20;;
46835;SDS011;32573;51.290;6.926;2023-04-19T06:35:19;8.07;;;4.22;;
46835;SDS011;32573;51.290;6.926;2023-04-19T06:37:48;8.35;;;4.90;;
46835;SDS011;32573;51.290;6.926;2023-04-19T06:40:19;8.85;;;4.03;;
46835;SDS011;32573;51.290;6.926;2023-04-19T06:42:48;7.65;;;4.35;;
46835;SDS011;32573;51.290;6.926;2023-04-19T06:45:17;7.55;;;4.15;;
46835;SDS011;32573;51.290;6.926;2023-04-19T06:47:48;7.18;;;3.97;;
46835;SDS011;32573;51.290;6.926;2023-04-19T06:50:17;7.25;;;4.30;;
46835;SDS011;32573;51.290;6.926;2023-04-19T06:52:45;7.90;;;4.40;;
46835;SDS011;32573;51.290;6.926;2023-04-19T06:55:14;8.55;;;4.00;;
46835;SDS011;32573;51.290;6.926;2023-04-19T06:57:44;8.48;;;4.55;;
46835;SDS011;32573;51.290;6.926;2023-04-19T07:00:14;7.95;;;4.40;;
46835;SDS011;32573;51.290;6.926;2023-04-19T07:02:43;9.05;;;4.40;;
46835;SDS011;32573;51.290;6.926;2023-04-19T07:05:12;7.25;;;4.28;;
46835;SDS011;32573;51.290;6.926;2023-04-19T07:07:41;7.70;;;4.22;;
46835;SDS011;32573;51.290;6.926;2023-04-19T07:10:10;6.88;;;4.05;;
46835;SDS011;32573;51.290;6.926;2023-04-19T07:12:39;8.02;;;4.20;;
46835;SDS011;32573;51.290;6.926;2023-04-19T07:15:10;8.27;;;4.35;;
46835;SDS011;32573;51.290;6.926;2023-04-19T07:17:39;6.72;;;4.28;;
46835;SDS011;32573;51.290;6.926;2023-04-19T07:20:08;7.65;;;4.43;;
46835;SDS011;32573;51.290;6.926;2023-04-19T07:22:38;11.18;;;4.78;;
46835;SDS011;32573;51.290;6.926;2023-04-19T07:25:09;7.47;;;4.22;;
46835;SDS011;32573;51.290;6.926;2023-04-19T07:27:38;7.43;;;4.20;;
46835;SDS011;32573;51.290;6.926;2023-04-19T07:30:09;8.63;;;4.40;;
46835;SDS011;32573;51.290;6.926;2023-04-19T07:32:39;6.80;;;3.70;;
46835;SDS011;32573;51.290;6.926;2023-04-19T07:35:08;8.98;;;4.47;;
46835;SDS011;32573;51.290;6.926;2023-04-19T07:37:37;7.15;;;4.32;;
46835;SDS011;32573;51.290;6.926;2023-04-19T07:40:08;9.25;;;4.35;;
46835;SDS011;32573;51.290;6.926;2023-04-19T07:42:37;6.93;;;3.47;;
46835;SDS011;32573;51.290;6.926;2023-04-19T07:45:06;6.93;;;3.80;;
46835;SDS011;32573;51.290;6.926;2023-04-19T07:47:37;6.30;;;3.60;;
46835;SDS011;32573;51.290;6.926;2023-04-19T07:50:07;8.48;;;3.70;;
46835;SDS011;32573;51.290;6.926;2023-04-19T07:52:36;6.95;;;3.75;;
46835;SDS011;32573;51.290;6.926;2023-04-19T07:55:05;6.85;;;4.03;;
46835;SDS011;32573;51.290;6.926;2023-04-19T07:57:35;7.80;;;4.15;;
46835;SDS011;32573;51.290;6.926;2023-04-19T08:00:04;6.20;;;3.72;;
46835;SDS011;32573;51.290;6.926;2023-04-19T08:02:43;7.25;;;3.90;;
46835;SDS011;32573;51.290;6.926;2023-04-19T08:05:14;6.80;;;3.88;;
46835;SDS011;32573;51.290;6.926;2023-04-19T08:07:44;5.53;;;3.75;;
46835;SDS011;32573;51.290;6.926;2023-04-19T08:10:13;7.43;;;3.60;;
46835;SDS011;32573;51.290;6.926;2023-04-19T08:12:42;6.18;;;3.80;;
46835;SDS011;32573;51.290;6.926;2023-04-19T08:15:27;6.78;;;3.78;;
46835;SDS011;32573;51.290;6.926;2023-04-19T08:18:18;6.78;;;3.60;;
46835;SDS011;32573;51.290;6.926;2023-04-19T08:20:46;8.00;;;3.47;;
46835;SDS011;32573;51.290;6.926;2023-04-19T08:23:15;5.38;;;3.00;;
46835;SDS011;32573;51.290;6.926;2023-04-19T08:25:53;6.50;;;3.13;;
46835;SDS011;32573;51.290;6.926;2023-04-19T08:28:22;5.45;;;3.30;;
46835;SDS011;32573;51.290;6.926;2023-04-19T08:30:50;5.80;;;3.10;;
46835;SDS011;32573;51.290;6.926;2023-04-19T08:33:20;6.22;;;3.00;;
46835;SDS011;32573;51.290;6.926;2023-04-19T08:35:52;6.30;;;3.20;;
46835;SDS011;32573;51.290;6.926;2023-04-19T08:38:21;6.47;;;3.47;;
46835;SDS011;32573;51.290;6.926;2023-04-19T08:40:50;5.90;;;2.92;;
46835;SDS011;32573;51.290;6.926;2023-04-19T08:43:21;6.30;;;3.20;;
46835;SDS011;32573;51.290;6.926;2023-04-19T08:45:54;5.25;;;2.80;;
46835;SDS011;32573;51.290;6.926;2023-04-19T08:48:26;6.63;;;2.90;;
46835;SDS011;32573;51.290;6.926;2023-04-19T08:50:56;5.53;;;2.97;;
46835;SDS011;32573;51.290;6.926;2023-04-19T08:53:32;5.80;;;2.90;;
46835;SDS011;32573;51.290;6.926;2023-04-19T08:56:02;5.18;;;2.90;;
46835;SDS011;32573;51.290;6.926;2023-04-19T08:58:43;5.38;;;3.03;;
46835;SDS011;32573;51.290;6.926;2023-04-19T09:01:32;5.80;;;2.83;;
46835;SDS011;32573;51.290;6.926;2023-04-19T09:04:04;5.28;;;3.05;;
46835;SDS011;32573;51.290;6.926;2023-04-19T09:06:37;6.50;;;3.10;;
46835;SDS011;32573;51.290;6.926;2023-04-19T09:09:13;7.10;;;2.90;;
46835;SDS011;32573;51.290;6.926;2023-04-19T09:11:46;5.75;;;2.75;;
46835;SDS011;32573;51.290;6.926;2023-04-19T09:14:16;5.47;;;2.70;;
46835;SDS011;32573;51.290;6.926;2023-04-19T09:16:46;5.10;;;2.78;;
46835;SDS011;32573;51.290;6.926;2023-04-19T09:19:19;5.03;;;2.80;;
46835;SDS011;32573;51.290;6.926;2023-04-19T09:21:51;5.43;;;3.00;;
46835;SDS011;32573;51.290;6.926;2023-04-19T09:24:36;5.07;;;2.88;;
46835;SDS011;32573;51.290;6.926;2023-04-19T09:27:08;4.65;;;2.33;;
46835;SDS011;32573;51.290;6.926;2023-04-19T09:29:38;4.68;;;2.58;;
46835;SDS011;32573;51.290;6.926;2023-04-19T09:32:09;6.25;;;2.53;;
46835;SDS011;32573;51.290;6.926;2023-04-19T09:34:42;5.82;;;2.65;;
46835;SDS011;32573;51.290;6.926;2023-04-19T09:37:21;4.88;;;2.70;;
46835;SDS011;32573;51.290;6.926;2023-04-19T09:39:53;5.90;;;2.40;;
46835;SDS011;32573;51.290;6.926;2023-04-19T09:42:22;4.50;;;2.20;;
46835;SDS011;32573;51.290;6.926;2023-04-19T09:45:11;5.68;;;2.58;;
46835;SDS011;32573;51.290;6.926;2023-04-19T09:47:45;6.18;;;2.60;;
46835;SDS011;32573;51.290;6.926;2023-04-19T09:50:32;5.60;;;2.25;;
46835;SDS011;32573;51.290;6.926;2023-04-19T09:53:21;4.95;;;2.40;;
46835;SDS011;32573;51.290;6.926;2023-04-19T09:55:53;4.22;;;2.30;;
46835;SDS011;32573;51.290;6.926;2023-04-19T09:58:28;4.75;;;2.22;;
46835;SDS011;32573;51.290;6.926;2023-04-19T10:01:15;4.45;;;2.17;;
46835;SDS011;32573;51.290;6.926;2023-04-19T10:03:46;5.00;;;2.08;;
46835;SDS011;32573;51.290;6.926;2023-04-19T10:06:20;4.57;;;2.17;;
46835;SDS011;32573;51.290;6.926;2023-04-19T10:08:52;4.65;;;2.03;;
46835;SDS011;32573;51.290;6.926;2023-04-19T10:11:22;4.53;;;1.90;;
46835;SDS011;32573;51.290;6.926;2023-04-19T10:13:55;4.03;;;1.90;;
46835;SDS011;32573;51.290;6.926;2023-04-19T10:16:27;3.78;;;1.77;;
46835;SDS011;32573;51.290;6.926;2023-04-19T10:18:58;4.22;;;1.58;;
46835;SDS011;32573;51.290;6.926;2023-04-19T10:21:31;4.07;;;1.60;;
46835;SDS011;32573;51.290;6.926;2023-04-19T10:24:04;3.63;;;1.65;;
46835;SDS011;32573;51.290;6.926;2023-04-19T10:32:25;4.93;;;1.80;;
46835;SDS011;32573;51.290;6.926;2023-04-19T10:35:00;4.35;;;1.80;;
46835;SDS011;32573;51.290;6.926;2023-04-19T10:37:31;3.67;;;1.75;;
46835;SDS011;32573;51.290;6.926;2023-04-19T10:40:00;4.35;;;1.85;;
46835;SDS011;32573;51.290;6.926;2023-04-19T10:45:37;4.40;;;1.63;;
46835;SDS011;32573;51.290;6.926;2023-04-19T10:48:07;3.75;;;2.00;;
46835;SDS011;32573;51.290;6.926;2023-04-19T10:51:00;3.85;;;1.67;;
46835;SDS011;32573;51.290;6.926;2023-04-19T10:53:47;4.60;;;1.70;;
46835;SDS011;32573;51.290;6.926;2023-04-19T10:56:18;4.88;;;2.05;;
46835;SDS011;32573;51.290;6.926;2023-04-19T11:01:49;3.75;;;1.75;;
46835;SDS011;32573;51.290;6.926;2023-04-19T11:04:21;4.53;;;2.10;;
46835;SDS011;32573;51.290;6.926;2023-04-19T11:06:57;3.63;;;1.77;;
46835;SDS011;32573;51.290;6.926;2023-04-19T11:09:33;3.92;;;2.00;;
46835;SDS011;32573;51.290;6.926;2023-04-19T11:12:05;4.35;;;1.90;;
46835;SDS011;32573;51.290;6.926;2023-04-19T11:14:35;4.25;;;1.65;;
46835;SDS011;32573;51.290;6.926;2023-04-19T11:17:13;4.28;;;1.52;;
46835;SDS011;32573;51.290;6.926;2023-04-19T11:19:44;4.55;;;2.03;;
46835;SDS011;32573;51.290;6.926;2023-04-19T11:22:13;4.43;;;1.83;;
46835;SDS011;32573;51.290;6.926;2023-04-19T11:24:46;5.15;;;2.00;;
46835;SDS011;32573;51.290;6.926;2023-04-19T11:27:15;4.18;;;1.80;;
46835;SDS011;32573;51.290;6.926;2023-04-19T11:29:44;3.80;;;2.03;;
46835;SDS011;32573;51.290;6.926;2023-04-19T11:32:13;4.10;;;1.90;;
46835;SDS011;32573;51.290;6.926;2023-04-19T11:34:42;3.88;;;1.70;;
46835;SDS011;32573;51.290;6.926;2023-04-19T11:37:11;3.97;;;2.10;;
46835;SDS011;32573;51.290;6.926;2023-04-19T11:39:47;4.25;;;2.03;;
46835;SDS011;32573;51.290;6.926;2023-04-19T11:42:16;4.45;;;1.92;;
46835;SDS011;32573;51.290;6.926;2023-04-19T11:44:49;4.43;;;2.00;;
46835;SDS011;32573;51.290;6.926;2023-04-19T11:47:19;3.97;;;1.70;;
46835;SDS011;32573;51.290;6.926;2023-04-19T11:49:48;2.97;;;1.58;;
46835;SDS011;32573;51.290;6.926;2023-04-19T11:52:20;4.50;;;2.30;;
46835;SDS011;32573;51.290;6.926;2023-04-19T11:54:52;4.28;;;1.80;;
46835;SDS011;32573;51.290;6.926;2023-04-19T11:57:26;4.57;;;1.70;;
46835;SDS011;32573;51.290;6.926;2023-04-19T12:00:02;5.13;;;1.98;;
46835;SDS011;32573;51.290;6.926;2023-04-19T12:02:43;5.32;;;2.30;;
46835;SDS011;32573;51.290;6.926;2023-04-19T12:05:14;5.00;;;2.33;;
46835;SDS011;32573;51.290;6.926;2023-04-19T12:07:59;5.70;;;2.30;;
46835;SDS011;32573;51.290;6.926;2023-04-19T12:10:30;4.05;;;2.00;;
46835;SDS011;32573;51.290;6.926;2023-04-19T12:13:00;4.47;;;2.15;;
46835;SDS011;32573;51.290;6.926;2023-04-19T12:15:44;4.10;;;2.10;;
46835;SDS011;32573;51.290;6.926;2023-04-19T12:18:15;4.05;;;1.98;;
46835;SDS011;32573;51.290;6.926;2023-04-19T12:20:44;5.10;;;2.08;;
46835;SDS011;32573;51.290;6.926;2023-04-19T12:23:16;4.68;;;2.20;;
46835;SDS011;32573;51.290;6.926;2023-04-19T12:25:47;5.15;;;2.28;;
46835;SDS011;32573;51.290;6.926;2023-04-19T12:28:16;5.05;;;1.92;;
46835;SDS011;32573;51.290;6.926;2023-04-19T12:30:45;3.70;;;1.85;;
46835;SDS011;32573;51.290;6.926;2023-04-19T12:33:13;5.65;;;2.28;;
46835;SDS011;32573;51.290;6.926;2023-04-19T12:35:42;4.30;;;2.00;;
46835;SDS011;32573;51.290;6.926;2023-04-19T12:38:12;4.30;;;2.08;;
46835;SDS011;32573;51.290;6.926;2023-04-19T12:40:40;4.88;;;2.00;;
46835;SDS011;32573;51.290;6.926;2023-04-19T12:43:14;4.55;;;2.30;;
46835;SDS011;32573;51.290;6.926;2023-04-19T12:45:43;5.53;;;1.92;;
46835;SDS011;32573;51.290;6.926;2023-04-19T12:48:12;5.18;;;2.75;;
46835;SDS011;32573;51.290;6.926;2023-04-19T12:50:40;4.88;;;2.40;;
46835;SDS011;32573;51.290;6.926;2023-04-19T12:53:09;4.72;;;2.10;;
46835;SDS011;32573;51.290;6.926;2023-04-19T12:55:37;4.88;;;2.15;;
46835;SDS011;32573;51.290;6.926;2023-04-19T12:58:06;4.80;;;2.47;;
46835;SDS011;32573;51.290;6.926;2023-04-19T13:00:36;4.97;;;1.83;;
46835;SDS011;32573;51.290;6.926;2023-04-19T13:03:05;5.05;;;2.60;;
46835;SDS011;32573;51.290;6.926;2023-04-19T13:05:34;4.53;;;2.63;;
46835;SDS011;32573;51.290;6.926;2023-04-19T13:08:03;4.70;;;2.60;;
46835;SDS011;32573;51.290;6.926;2023-04-19T13:10:32;4.93;;;2.80;;
46835;SDS011;32573;51.290;6.926;2023-04-19T13:13:01;4.75;;;2.60;;
46835;SDS011;32573;51.290;6.926;2023-04-19T13:15:29;5.10;;;3.00;;
46835;SDS011;32573;51.290;6.926;2023-04-19T13:17:59;5.20;;;2.70;;
46835;SDS011;32573;51.290;6.926;2023-04-19T13:20:28;5.93;;;3.00;;
46835;SDS011;32573;51.290;6.926;2023-04-19T13:22:57;5.97;;;2.70;;
46835;SDS011;32573;51.290;6.926;2023-04-19T13:25:25;6.35;;;2.60;;
46835;SDS011;32573;51.290;6.926;2023-04-19T13:27:54;5.05;;;2.30;;
46835;SDS011;32573;51.290;6.926;2023-04-19T13:30:25;5.63;;;2.55;;
46835;SDS011;32573;51.290;6.926;2023-04-19T13:32:55;6.75;;;2.67;;
46835;SDS011;32573;51.290;6.926;2023-04-19T13:35:25;6.30;;;2.80;;
46835;SDS011;32573;51.290;6.926;2023-04-19T13:37:54;5.15;;;2.63;;
46835;SDS011;32573;51.290;6.926;2023-04-19T13:40:23;5.82;;;3.20;;
46835;SDS011;32573;51.290;6.926;2023-04-19T13:42:51;4.90;;;2.85;;
46835;SDS011;32573;51.290;6.926;2023-04-19T13:45:20;4.50;;;2.60;;
46835;SDS011;32573;51.290;6.926;2023-04-19T13:47:49;4.30;;;2.35;;
46835;SDS011;32573;51.290;6.926;2023-04-19T13:50:18;4.28;;;2.35;;
46835;SDS011;32573;51.290;6.926;2023-04-19T13:52:48;4.78;;;2.40;;
46835;SDS011;32573;51.290;6.926;2023-04-19T13:55:17;4.78;;;2.70;;
46835;SDS011;32573;51.290;6.926;2023-04-19T13:57:45;4.80;;;2.45;;
46835;SDS011;32573;51.290;6.926;2023-04-19T14:00:14;5.07;;;2.60;;
46835;SDS011;32573;51.290;6.926;2023-04-19T14:02:43;4.68;;;2.35;;
46835;SDS011;32573;51.290;6.926;2023-04-19T14:05:15;4.57;;;2.33;;
46835;SDS011;32573;51.290;6.926;2023-04-19T14:07:44;6.85;;;2.47;;
46835;SDS011;32573;51.290;6.926;2023-04-19T14:10:13;5.15;;;2.63;;
46835;SDS011;32573;51.290;6.926;2023-04-19T14:12:42;4.82;;;2.50;;
46835;SDS011;32573;51.290;6.926;2023-04-19T14:15:11;6.38;;;2.92;;
46835;SDS011;32573;51.290;6.926;2023-04-19T14:17:40;4.53;;;2.60;;
46835;SDS011;32573;51.290;6.926;2023-04-19T14:20:09;6.40;;;2.60;;
46835;SDS011;32573;51.290;6.926;2023-04-19T14:22:38;4.32;;;2.50;;
46835;SDS011;32573;51.290;6.926;2023-04-19T14:25:07;5.35;;;2.33;;
46835;SDS011;32573;51.290;6.926;2023-04-19T14:27:38;4.32;;;2.42;;
46835;SDS011;32573;51.290;6.926;2023-04-19T14:30:07;4.30;;;2.50;;
46835;SDS011;32573;51.290;6.926;2023-04-19T14:32:36;3.63;;;2.03;;
46835;SDS011;32573;51.290;6.926;2023-04-19T14:35:05;5.90;;;2.33;;
46835;SDS011;32573;51.290;6.926;2023-04-19T14:37:37;4.10;;;2.50;;
46835;SDS011;32573;51.290;6.926;2023-04-19T14:40:06;4.78;;;2.50;;
46835;SDS011;32573;51.290;6.926;2023-04-19T14:42:37;7.00;;;2.60;;
46835;SDS011;32573;51.290;6.926;2023-04-19T14:45:06;4.90;;;2.55;;
46835;SDS011;32573;51.290;6.926;2023-04-19T14:47:35;5.53;;;2.30;;
46835;SDS011;32573;51.290;6.926;2023-04-19T14:50:05;4.50;;;2.17;;
46835;SDS011;32573;51.290;6.926;2023-04-19T14:52:36;6.93;;;2.25;;
46835;SDS011;32573;51.290;6.926;2023-04-19T14:55:05;4.03;;;2.00;;
46835;SDS011;32573;51.290;6.926;2023-04-19T14:57:35;4.30;;;2.10;;
46835;SDS011;32573;51.290;6.926;2023-04-19T15:00:05;4.65;;;2.20;;
46835;SDS011;32573;51.290;6.926;2023-04-19T15:02:35;4.63;;;2.00;;
46835;SDS011;32573;51.290;6.926;2023-04-19T15:05:04;3.47;;;2.08;;
46835;SDS011;32573;51.290;6.926;2023-04-19T15:07:34;4.38;;;2.25;;
46835;SDS011;32573;51.290;6.926;2023-04-19T15:10:03;4.13;;;2.20;;
46835;SDS011;32573;51.290;6.926;2023-04-19T15:12:32;3.92;;;2.25;;
46835;SDS011;32573;51.290;6.926;2023-04-19T15:15:01;4.55;;;2.00;;
46835;SDS011;32573;51.290;6.926;2023-04-19T15:17:31;3.60;;;2.05;;
46835;SDS011;32573;51.290;6.926;2023-04-19T15:20:00;3.53;;;1.90;;
46835;SDS011;32573;51.290;6.926;2023-04-19T15:22:28;5.93;;;2.33;;